sensor_id;sensor_type;location;lat;lon;timestamp;temperature;humidity
64561;DHT22;50960;46.838;16.838;2023-02-26T07:59:41;4.00;75.00
64561;DHT22;50960;46.838;16.838;2023-02-26T08:02:08;4.10;74.60
64561;DHT22;50960;46.838;16.838;2023-02-26T08:04:35;3.90;75.00
64561;DHT22;50960;46.838;16.838;2023-02-26T08:07:01;3.90;75.20
64561;DHT22;50960;46.838;16.838;2023-02-26T08:09:28;4.00;76.30
64561;DHT22;50960;46.838;16.838;2023-02-26T08:11:56;3.90;75.60
64561;DHT22;50960;46.838;16.838;2023-02-26T08:14:22;3.80;74.80
64561;DHT22;50960;46.838;16.838;2023-02-26T08:16:48;3.70;75.10
64561;DHT22;50960;46.838;16.838;2023-02-26T08:19:15;3.90;75.50
64561;DHT22;50960;46.838;16.838;2023-02-26T08:21:41;4.20;75.50
64561;DHT22;50960;46.838;16.838;2023-02-26T08:24:09;3.90;74.80
64561;DHT22;50960;46.838;16.838;2023-02-26T08:26:36;3.90;76.00
64561;DHT22;50960;46.838;16.838;2023-02-26T08:29:03;3.60;75.90
64561;DHT22;50960;46.838;16.838;2023-02-26T08:31:30;3.50;77.20
64561;DHT22;50960;46.838;16.838;2023-02-26T08:33:57;3.50;77.30
64561;DHT22;50960;46.838;16.838;2023-02-26T08:36:23;3.50;77.10
64561;DHT22;50960;46.838;16.838;2023-02-26T08:38:50;3.50;76.30
64561;DHT22;50960;46.838;16.838;2023-02-26T08:41:16;3.50;76.50
64561;DHT22;50960;46.838;16.838;2023-02-26T08:43:42;3.70;76.50
64561;DHT22;50960;46.838;16.838;2023-02-26T08:46:09;3.90;76.30
64561;DHT22;50960;46.838;16.838;2023-02-26T08:48:35;3.90;76.60
64561;DHT22;50960;46.838;16.838;2023-02-26T08:51:02;3.90;76.00
64561;DHT22;50960;46.838;16.838;2023-02-26T08:53:28;4.10;74.60
64561;DHT22;50960;46.838;16.838;2023-02-26T08:55:57;4.10;75.00
64561;DHT22;50960;46.838;16.838;2023-02-26T08:58:24;4.10;74.80
64561;DHT22;50960;46.838;16.838;2023-02-26T09:00:50;4.40;74.30
64561;DHT22;50960;46.838;16.838;2023-02-26T09:03:16;4.30;74.50
64561;DHT22;50960;46.838;16.838;2023-02-26T09:05:43;4.90;73.60
64561;DHT22;50960;46.838;16.838;2023-02-26T09:08:09;4.60;72.70
64561;DHT22;50960;46.838;16.838;2023-02-26T09:10:36;4.70;74.00
64561;DHT22;50960;46.838;16.838;2023-02-26T09:13:07;4.70;73.40
64561;DHT22;50960;46.838;16.838;2023-02-26T09:15:33;5.10;73.80
64561;DHT22;50960;46.838;16.838;2023-02-26T09:17:59;4.70;71.60
64561;DHT22;50960;46.838;16.838;2023-02-26T09:20:26;5.20;72.60
64561;DHT22;50960;46.838;16.838;2023-02-26T09:22:53;5.20;71.20
64561;DHT22;50960;46.838;16.838;2023-02-26T09:25:19;5.20;72.70
64561;DHT22;50960;46.838;16.838;2023-02-26T09:27:45;5.20;71.30
64561;DHT22;50960;46.838;16.838;2023-02-26T09:30:12;4.70;71.20
64561;DHT22;50960;46.838;16.838;2023-02-26T09:32:40;4.60;72.70
64561;DHT22;50960;46.838;16.838;2023-02-26T09:35:06;4.70;72.50
64561;DHT22;50960;46.838;16.838;2023-02-26T09:37:33;4.90;72.50
64561;DHT22;50960;46.838;16.838;2023-02-26T09:39:59;4.80;71.30
64561;DHT22;50960;46.838;16.838;2023-02-26T09:42:40;4.80;72.10
64561;DHT22;50960;46.838;16.838;2023-02-26T09:45:57;5.10;70.40
64561;DHT22;50960;46.838;16.838;2023-02-26T09:48:05;5.10;70.80
64561;DHT22;50960;46.838;16.838;2023-02-26T09:50:56;5.00;72.00
64561;DHT22;50960;46.838;16.838;2023-02-26T09:53:30;5.10;73.00
64561;DHT22;50960;46.838;16.838;2023-02-26T09:56:18;5.20;72.30
64561;DHT22;50960;46.838;16.838;2023-02-26T09:58:46;5.10;71.00
64561;DHT22;50960;46.838;16.838;2023-02-26T10:12:48;4.90;70.60
64561;DHT22;50960;46.838;16.838;2023-02-26T10:15:26;5.30;70.20
64561;DHT22;50960;46.838;16.838;2023-02-26T10:18:03;5.30;70.80
64561;DHT22;50960;46.838;16.838;2023-02-26T10:20:33;5.60;69.20
64561;DHT22;50960;46.838;16.838;2023-02-26T10:23:16;5.70;68.70
64561;DHT22;50960;46.838;16.838;2023-02-26T10:25:52;5.70;66.40
64561;DHT22;50960;46.838;16.838;2023-02-26T10:28:33;5.80;66.00
64561;DHT22;50960;46.838;16.838;2023-02-26T10:31:21;5.90;66.10
64561;DHT22;50960;46.838;16.838;2023-02-26T10:33:55;6.30;64.70
64561;DHT22;50960;46.838;16.838;2023-02-26T10:36:31;6.20;64.00
64561;DHT22;50960;46.838;16.838;2023-02-26T10:39:02;6.20;63.00
64561;DHT22;50960;46.838;16.838;2023-02-26T10:41:32;6.20;62.70
64561;DHT22;50960;46.838;16.838;2023-02-26T10:44:31;6.70;62.70
64561;DHT22;50960;46.838;16.838;2023-02-26T10:50:03;6.40;60.40
64561;DHT22;50960;46.838;16.838;2023-02-26T10:52:32;6.60;60.70
64561;DHT22;50960;46.838;16.838;2023-02-26T10:58:14;6.50;60.70
64561;DHT22;50960;46.838;16.838;2023-02-26T11:00:43;7.10;60.80
64561;DHT22;50960;46.838;16.838;2023-02-26T11:03:21;6.30;61.30
64561;DHT22;50960;46.838;16.838;2023-02-26T11:05:49;5.80;62.60
64561;DHT22;50960;46.838;16.838;2023-02-26T11:08:41;5.70;63.50
64561;DHT22;50960;46.838;16.838;2023-02-26T11:11:08;6.10;63.00
64561;DHT22;50960;46.838;16.838;2023-02-26T11:13:36;6.10;61.80
64561;DHT22;50960;46.838;16.838;2023-02-26T11:16:16;6.20;63.10
64561;DHT22;50960;46.838;16.838;2023-02-26T11:18:49;6.40;62.90
64561;DHT22;50960;46.838;16.838;2023-02-26T11:21:29;6.40;61.80
64561;DHT22;50960;46.838;16.838;2023-02-26T11:24:08;6.50;62.40
64561;DHT22;50960;46.838;16.838;2023-02-26T11:26:37;7.00;61.90
64561;DHT22;50960;46.838;16.838;2023-02-26T11:29:04;6.80;59.60
64561;DHT22;50960;46.838;16.838;2023-02-26T11:31:31;6.20;60.90
64561;DHT22;50960;46.838;16.838;2023-02-26T11:34:02;6.30;58.80
64561;DHT22;50960;46.838;16.838;2023-02-26T11:36:31;6.10;57.70
64561;DHT22;50960;46.838;16.838;2023-02-26T11:41:36;6.30;58.60
64561;DHT22;50960;46.838;16.838;2023-02-26T11:46:38;6.30;59.10
64561;DHT22;50960;46.838;16.838;2023-02-26T11:49:10;6.10;58.20
64561;DHT22;50960;46.838;16.838;2023-02-26T11:51:42;5.60;58.10
64561;DHT22;50960;46.838;16.838;2023-02-26T11:54:26;5.80;59.20
64561;DHT22;50960;46.838;16.838;2023-02-26T11:57:03;5.70;59.50
64561;DHT22;50960;46.838;16.838;2023-02-26T11:59:31;5.70;60.20
64561;DHT22;50960;46.838;16.838;2023-02-26T12:02:09;5.70;59.10
64561;DHT22;50960;46.838;16.838;2023-02-26T12:04:42;5.30;58.40
64561;DHT22;50960;46.838;16.838;2023-02-26T12:07:13;5.60;59.40
64561;DHT22;50960;46.838;16.838;2023-02-26T12:09:40;5.80;58.80
64561;DHT22;50960;46.838;16.838;2023-02-26T12:14:53;5.70;57.30
64561;DHT22;50960;46.838;16.838;2023-02-26T12:45:05;6.30;53.00
64561;DHT22;50960;46.838;16.838;2023-02-26T12:48:05;6.20;52.00
64561;DHT22;50960;46.838;16.838;2023-02-26T13:04:31;5.60;54.10
64561;DHT22;50960;46.838;16.838;2023-02-26T13:10:02;5.60;54.40
64561;DHT22;50960;46.838;16.838;2023-02-26T13:21:10;5.70;52.40
64561;DHT22;50960;46.838;16.838;2023-02-26T13:23:58;5.80;52.70
64561;DHT22;50960;46.838;16.838;2023-02-26T13:26:31;5.50;52.70
64561;DHT22;50960;46.838;16.838;2023-02-26T13:31:40;5.50;53.90
64561;DHT22;50960;46.838;16.838;2023-02-26T13:34:13;5.60;54.10
64561;DHT22;50960;46.838;16.838;2023-02-26T13:36:41;5.80;52.40
64561;DHT22;50960;46.838;16.838;2023-02-26T13:47:31;5.10;52.10
64561;DHT22;50960;46.838;16.838;2023-02-26T13:50:18;5.10;53.10
64561;DHT22;50960;46.838;16.838;2023-02-26T13:52:56;5.00;53.40
64561;DHT22;50960;46.838;16.838;2023-02-26T13:55:36;5.00;53.90
64561;DHT22;50960;46.838;16.838;2023-02-26T14:03:49;4.80;55.00
64561;DHT22;50960;46.838;16.838;2023-02-26T14:06:35;4.90;55.10
64561;DHT22;50960;46.838;16.838;2023-02-26T14:09:28;4.90;54.00
64561;DHT22;50960;46.838;16.838;2023-02-26T14:17:39;4.90;52.90
64561;DHT22;50960;46.838;16.838;2023-02-26T14:20:19;4.80;53.40
64561;DHT22;50960;46.838;16.838;2023-02-26T14:22:49;4.90;53.90
64561;DHT22;50960;46.838;16.838;2023-02-26T14:33:41;4.90;55.20
64561;DHT22;50960;46.838;16.838;2023-02-26T14:36:36;4.80;56.10
64561;DHT22;50960;46.838;16.838;2023-02-26T14:39:05;4.80;56.10
64561;DHT22;50960;46.838;16.838;2023-02-26T14:41:37;4.80;56.00
64561;DHT22;50960;46.838;16.838;2023-02-26T14:44:14;4.60;54.60
64561;DHT22;50960;46.838;16.838;2023-02-26T14:46:42;4.70;57.10
64561;DHT22;50960;46.838;16.838;2023-02-26T14:49:25;4.70;56.10
64561;DHT22;50960;46.838;16.838;2023-02-26T14:58:03;4.70;55.90
64561;DHT22;50960;46.838;16.838;2023-02-26T15:07:05;4.60;55.70
64561;DHT22;50960;46.838;16.838;2023-02-26T15:09:32;4.60;55.40
64561;DHT22;50960;46.838;16.838;2023-02-26T15:17:36;4.60;55.80
64561;DHT22;50960;46.838;16.838;2023-02-26T15:22:54;4.60;56.70
64561;DHT22;50960;46.838;16.838;2023-02-26T15:25:39;4.60;56.00
64561;DHT22;50960;46.838;16.838;2023-02-26T15:28:12;4.50;55.90
64561;DHT22;50960;46.838;16.838;2023-02-26T15:30:39;4.40;55.70
64561;DHT22;50960;46.838;16.838;2023-02-26T15:33:12;4.40;56.50
64561;DHT22;50960;46.838;16.838;2023-02-26T15:35:39;4.40;56.40
64561;DHT22;50960;46.838;16.838;2023-02-26T15:38:08;4.40;56.10
64561;DHT22;50960;46.838;16.838;2023-02-26T15:40:35;4.60;57.30
64561;DHT22;50960;46.838;16.838;2023-02-26T15:43:04;4.60;57.40
64561;DHT22;50960;46.838;16.838;2023-02-26T15:45:39;4.50;57.10
64561;DHT22;50960;46.838;16.838;2023-02-26T15:48:23;4.60;58.40
64561;DHT22;50960;46.838;16.838;2023-02-26T15:50:55;4.50;56.90
64561;DHT22;50960;46.838;16.838;2023-02-26T15:56:12;4.40;56.00
64561;DHT22;50960;46.838;16.838;2023-02-26T15:59:27;4.20;55.60
64561;DHT22;50960;46.838;16.838;2023-02-26T16:01:34;4.20;55.80
64561;DHT22;50960;46.838;16.838;2023-02-26T16:04:05;4.10;56.00
64561;DHT22;50960;46.838;16.838;2023-02-26T16:06:45;4.10;56.70
64561;DHT22;50960;46.838;16.838;2023-02-26T16:09:19;4.00;56.70
64561;DHT22;50960;46.838;16.838;2023-02-26T16:11:46;4.10;57.20
64561;DHT22;50960;46.838;16.838;2023-02-26T16:14:20;4.00;57.00
64561;DHT22;50960;46.838;16.838;2023-02-26T16:16:50;4.00;57.80
64561;DHT22;50960;46.838;16.838;2023-02-26T16:19:20;4.00;58.30
64561;DHT22;50960;46.838;16.838;2023-02-26T16:21:48;3.90;57.80
64561;DHT22;50960;46.838;16.838;2023-02-26T16:24:18;3.90;59.00
64561;DHT22;50960;46.838;16.838;2023-02-26T16:27:01;3.80;59.60
64561;DHT22;50960;46.838;16.838;2023-02-26T16:29:30;3.80;58.60
64561;DHT22;50960;46.838;16.838;2023-02-26T16:32:01;3.80;59.40
64561;DHT22;50960;46.838;16.838;2023-02-26T16:34:52;3.80;59.80
64561;DHT22;50960;46.838;16.838;2023-02-26T16:40:15;3.70;61.50
64561;DHT22;50960;46.838;16.838;2023-02-26T16:43:05;3.60;62.00
64561;DHT22;50960;46.838;16.838;2023-02-26T16:45:54;3.70;62.60
64561;DHT22;50960;46.838;16.838;2023-02-26T16:50:59;3.60;63.80
64561;DHT22;50960;46.838;16.838;2023-02-26T16:53:35;3.60;64.20
64561;DHT22;50960;46.838;16.838;2023-02-26T16:56:03;3.60;64.20
64561;DHT22;50960;46.838;16.838;2023-02-26T16:58:30;3.60;64.80
64561;DHT22;50960;46.838;16.838;2023-02-26T17:01:08;3.50;65.60
64561;DHT22;50960;46.838;16.838;2023-02-26T17:03:37;3.50;66.40
64561;DHT22;50960;46.838;16.838;2023-02-26T17:06:09;3.40;66.50
64561;DHT22;50960;46.838;16.838;2023-02-26T17:08:51;3.50;66.40
64561;DHT22;50960;46.838;16.838;2023-02-26T17:11:35;3.50;66.80
64561;DHT22;50960;46.838;16.838;2023-02-26T17:16:29;3.40;67.10
64561;DHT22;50960;46.838;16.838;2023-02-26T17:18:56;3.40;67.50
64561;DHT22;50960;46.838;16.838;2023-02-26T17:21:22;3.40;67.30
64561;DHT22;50960;46.838;16.838;2023-02-26T17:23:49;3.40;67.30
64561;DHT22;50960;46.838;16.838;2023-02-26T17:26:15;3.40;67.60
64561;DHT22;50960;46.838;16.838;2023-02-26T17:28:42;3.40;67.30
64561;DHT22;50960;46.838;16.838;2023-02-26T17:31:09;3.40;67.50
64561;DHT22;50960;46.838;16.838;2023-02-26T17:33:40;3.30;67.30
64561;DHT22;50960;46.838;16.838;2023-02-26T17:36:10;3.30;68.00
64561;DHT22;50960;46.838;16.838;2023-02-26T17:38:39;3.30;67.30
64561;DHT22;50960;46.838;16.838;2023-02-26T17:41:15;3.30;67.20
64561;DHT22;50960;46.838;16.838;2023-02-26T17:43:42;3.30;67.70
64561;DHT22;50960;46.838;16.838;2023-02-26T17:46:12;3.30;68.00
64561;DHT22;50960;46.838;16.838;2023-02-26T17:48:38;3.20;67.90
64561;DHT22;50960;46.838;16.838;2023-02-26T17:51:05;3.20;67.70
64561;DHT22;50960;46.838;16.838;2023-02-26T17:53:32;3.10;67.60
64561;DHT22;50960;46.838;16.838;2023-02-26T17:56:32;3.10;67.50
64561;DHT22;50960;46.838;16.838;2023-02-26T17:59:00;3.10;67.70
64561;DHT22;50960;46.838;16.838;2023-02-26T18:01:27;3.10;67.70
64561;DHT22;50960;46.838;16.838;2023-02-26T18:03:53;3.10;67.20
64561;DHT22;50960;46.838;16.838;2023-02-26T18:06:21;3.10;67.90
64561;DHT22;50960;46.838;16.838;2023-02-26T18:08:48;3.10;67.80
64561;DHT22;50960;46.838;16.838;2023-02-26T18:11:15;3.10;67.60
64561;DHT22;50960;46.838;16.838;2023-02-26T18:13:42;3.10;67.90
64561;DHT22;50960;46.838;16.838;2023-02-26T18:16:16;3.10;67.50
64561;DHT22;50960;46.838;16.838;2023-02-26T18:18:43;3.00;67.60
64561;DHT22;50960;46.838;16.838;2023-02-26T18:21:10;3.00;67.30
64561;DHT22;50960;46.838;16.838;2023-02-26T18:23:37;3.00;67.80
64561;DHT22;50960;46.838;16.838;2023-02-26T18:26:04;3.00;67.60
64561;DHT22;50960;46.838;16.838;2023-02-26T18:28:31;3.00;67.80
64561;DHT22;50960;46.838;16.838;2023-02-26T18:30:58;3.00;67.80
64561;DHT22;50960;46.838;16.838;2023-02-26T18:33:25;3.00;67.70
64561;DHT22;50960;46.838;16.838;2023-02-26T18:35:53;3.00;67.00
64561;DHT22;50960;46.838;16.838;2023-02-26T18:38:26;3.00;67.70
64561;DHT22;50960;46.838;16.838;2023-02-26T18:40:54;3.00;67.40
64561;DHT22;50960;46.838;16.838;2023-02-26T18:43:20;3.00;67.50
64561;DHT22;50960;46.838;16.838;2023-02-26T18:45:49;3.00;68.10
64561;DHT22;50960;46.838;16.838;2023-02-26T18:48:18;2.90;67.70
64561;DHT22;50960;46.838;16.838;2023-02-26T18:50:45;2.90;67.40
64561;DHT22;50960;46.838;16.838;2023-02-26T18:53:13;2.90;67.70
64561;DHT22;50960;46.838;16.838;2023-02-26T18:55:42;2.90;68.10
64561;DHT22;50960;46.838;16.838;2023-02-26T18:58:08;2.90;67.90
64561;DHT22;50960;46.838;16.838;2023-02-26T19:00:35;2.90;67.10
64561;DHT22;50960;46.838;16.838;2023-02-26T19:03:01;2.90;66.50
64561;DHT22;50960;46.838;16.838;2023-02-26T19:05:29;2.80;66.50
64561;DHT22;50960;46.838;16.838;2023-02-26T19:07:56;2.90;66.20
64561;DHT22;50960;46.838;16.838;2023-02-26T19:10:22;2.80;65.70
64561;DHT22;50960;46.838;16.838;2023-02-26T19:12:49;2.80;66.00
64561;DHT22;50960;46.838;16.838;2023-02-26T19:15:16;2.80;64.90
64561;DHT22;50960;46.838;16.838;2023-02-26T19:17:42;2.80;65.50
64561;DHT22;50960;46.838;16.838;2023-02-26T19:20:10;2.80;65.50
64561;DHT22;50960;46.838;16.838;2023-02-26T19:22:36;2.80;64.80
64561;DHT22;50960;46.838;16.838;2023-02-26T19:25:04;2.80;64.50
64561;DHT22;50960;46.838;16.838;2023-02-26T19:27:31;2.80;65.40
64561;DHT22;50960;46.838;16.838;2023-02-26T19:29:57;2.80;64.60
64561;DHT22;50960;46.838;16.838;2023-02-26T19:32:24;2.80;64.50
64561;DHT22;50960;46.838;16.838;2023-02-26T19:34:51;2.80;64.60
64561;DHT22;50960;46.838;16.838;2023-02-26T19:37:18;2.70;63.90
64561;DHT22;50960;46.838;16.838;2023-02-26T19:39:44;2.70;64.20
64561;DHT22;50960;46.838;16.838;2023-02-26T19:42:11;2.70;64.60
64561;DHT22;50960;46.838;16.838;2023-02-26T19:44:37;2.70;64.10
64561;DHT22;50960;46.838;16.838;2023-02-26T19:47:04;2.70;63.70
64561;DHT22;50960;46.838;16.838;2023-02-26T19:49:31;2.70;63.80
64561;DHT22;50960;46.838;16.838;2023-02-26T19:51:57;2.70;63.90
64561;DHT22;50960;46.838;16.838;2023-02-26T19:54:24;2.70;63.00
64561;DHT22;50960;46.838;16.838;2023-02-26T19:56:51;2.70;62.80
64561;DHT22;50960;46.838;16.838;2023-02-26T19:59:17;2.70;62.80
64561;DHT22;50960;46.838;16.838;2023-02-26T20:01:44;2.70;63.30
64561;DHT22;50960;46.838;16.838;2023-02-26T20:04:15;2.60;62.70
64561;DHT22;50960;46.838;16.838;2023-02-26T20:06:41;2.60;63.60
64561;DHT22;50960;46.838;16.838;2023-02-26T20:09:08;2.60;62.60
64561;DHT22;50960;46.838;16.838;2023-02-26T20:11:35;2.60;63.00
64561;DHT22;50960;46.838;16.838;2023-02-26T20:14:03;2.50;63.30
64561;DHT22;50960;46.838;16.838;2023-02-26T20:16:29;2.50;63.50
64561;DHT22;50960;46.838;16.838;2023-02-26T20:18:56;2.50;64.20
64561;DHT22;50960;46.838;16.838;2023-02-26T20:21:22;2.50;64.40
64561;DHT22;50960;46.838;16.838;2023-02-26T20:23:49;2.50;64.80
64561;DHT22;50960;46.838;16.838;2023-02-26T20:26:15;2.50;64.80
64561;DHT22;50960;46.838;16.838;2023-02-26T20:28:42;2.40;65.50
64561;DHT22;50960;46.838;16.838;2023-02-26T20:31:09;2.40;66.20
64561;DHT22;50960;46.838;16.838;2023-02-26T20:33:36;2.30;66.80
64561;DHT22;50960;46.838;16.838;2023-02-26T20:36:08;2.30;67.10
64561;DHT22;50960;46.838;16.838;2023-02-26T20:38:34;2.30;67.60
64561;DHT22;50960;46.838;16.838;2023-02-26T20:41:01;2.30;67.00
64561;DHT22;50960;46.838;16.838;2023-02-26T20:43:28;2.30;66.70
64561;DHT22;50960;46.838;16.838;2023-02-26T20:45:54;2.20;67.50
64561;DHT22;50960;46.838;16.838;2023-02-26T20:48:22;2.30;66.50
64561;DHT22;50960;46.838;16.838;2023-02-26T20:50:48;2.30;66.20
64561;DHT22;50960;46.838;16.838;2023-02-26T20:53:19;2.20;66.20
64561;DHT22;50960;46.838;16.838;2023-02-26T20:55:46;2.20;66.60
64561;DHT22;50960;46.838;16.838;2023-02-26T20:58:13;2.20;67.30
64561;DHT22;50960;46.838;16.838;2023-02-26T21:00:40;2.20;67.40
64561;DHT22;50960;46.838;16.838;2023-02-26T21:03:07;2.10;67.80
64561;DHT22;50960;46.838;16.838;2023-02-26T21:05:34;2.10;67.30
64561;DHT22;50960;46.838;16.838;2023-02-26T21:08:01;2.10;67.50
64561;DHT22;50960;46.838;16.838;2023-02-26T21:10:29;2.00;67.90
64561;DHT22;50960;46.838;16.838;2023-02-26T21:12:58;2.00;68.20
64561;DHT22;50960;46.838;16.838;2023-02-26T21:15:25;2.00;68.40
64561;DHT22;50960;46.838;16.838;2023-02-26T21:17:51;2.00;68.40
64561;DHT22;50960;46.838;16.838;2023-02-26T21:20:18;2.00;68.10
64561;DHT22;50960;46.838;16.838;2023-02-26T21:22:47;1.90;68.80
64561;DHT22;50960;46.838;16.838;2023-02-26T21:25:13;1.90;69.20
64561;DHT22;50960;46.838;16.838;2023-02-26T21:27:39;1.80;69.40
64561;DHT22;50960;46.838;16.838;2023-02-26T21:30:07;1.80;69.40
64561;DHT22;50960;46.838;16.838;2023-02-26T21:32:35;1.80;69.90
64561;DHT22;50960;46.838;16.838;2023-02-26T21:35:02;1.70;69.70
64561;DHT22;50960;46.838;16.838;2023-02-26T21:37:29;1.70;69.60
64561;DHT22;50960;46.838;16.838;2023-02-26T21:39:56;1.70;69.60
64561;DHT22;50960;46.838;16.838;2023-02-26T21:42:22;1.70;70.00
64561;DHT22;50960;46.838;16.838;2023-02-26T21:44:49;1.70;69.90
64561;DHT22;50960;46.838;16.838;2023-02-26T21:47:15;1.60;70.50
64561;DHT22;50960;46.838;16.838;2023-02-26T21:49:42;1.60;70.70
64561;DHT22;50960;46.838;16.838;2023-02-26T21:52:09;1.50;70.90
64561;DHT22;50960;46.838;16.838;2023-02-26T21:54:36;1.50;70.80
64561;DHT22;50960;46.838;16.838;2023-02-26T21:57:03;1.50;71.20
64561;DHT22;50960;46.838;16.838;2023-02-26T21:59:31;1.50;71.10
64561;DHT22;50960;46.838;16.838;2023-02-26T22:01:57;1.50;71.80
64561;DHT22;50960;46.838;16.838;2023-02-26T22:04:24;1.40;71.70
64561;DHT22;50960;46.838;16.838;2023-02-26T22:06:51;1.40;72.10
